sensor_id;sensor_type;location;lat;lon;timestamp;P1;durP1;ratioP1;P2;durP2;ratioP2
32292;SDS011;43233;48.608;8.838;2023-06-26T00:00:30;10.00;;;6.90;;
32292;SDS011;43233;48.608;8.838;2023-06-26T00:02:57;8.83;;;7.40;;
32292;SDS011;43233;48.608;8.838;2023-06-26T00:05:22;10.17;;;7.87;;
32292;SDS011;43233;48.608;8.838;2023-06-26T00:07:48;14.00;;;7.77;;
32292;SDS011;43233;48.608;8.838;2023-06-26T00:10:13;10.97;;;8.70;;
32292;SDS011;43233;48.608;8.838;2023-06-26T00:12:39;9.80;;;7.47;;
32292;SDS011;43233;48.608;8.838;2023-06-26T00:15:05;10.00;;;7.40;;
32292;SDS011;43233;48.608;8.838;2023-06-26T00:17:33;8.47;;;7.07;;
32292;SDS011;43233;48.608;8.838;2023-06-26T00:20:02;9.40;;;8.03;;
32292;SDS011;43233;48.608;8.838;2023-06-26T00:22:28;11.83;;;8.20;;
32292;SDS011;43233;48.608;8.838;2023-06-26T00:24:54;8.50;;;7.27;;
32292;SDS011;43233;48.608;8.838;2023-06-26T00:27:20;8.37;;;6.90;;
32292;SDS011;43233;48.608;8.838;2023-06-26T00:29:45;8.77;;;6.93;;
32292;SDS011;43233;48.608;8.838;2023-06-26T00:32:11;10.20;;;7.93;;
32292;SDS011;43233;48.608;8.838;2023-06-26T00:34:37;8.50;;;6.90;;
32292;SDS011;43233;48.608;8.838;2023-06-26T00:37:02;13.37;;;8.17;;
32292;SDS011;43233;48.608;8.838;2023-06-26T00:39:29;7.83;;;7.00;;
32292;SDS011;43233;48.608;8.838;2023-06-26T00:41:54;9.53;;;8.13;;
32292;SDS011;43233;48.608;8.838;2023-06-26T00:44:20;8.53;;;7.63;;
32292;SDS011;43233;48.608;8.838;2023-06-26T00:46:46;8.50;;;7.60;;
32292;SDS011;43233;48.608;8.838;2023-06-26T00:49:12;9.47;;;7.50;;
32292;SDS011;43233;48.608;8.838;2023-06-26T00:51:38;8.40;;;7.17;;
32292;SDS011;43233;48.608;8.838;2023-06-26T00:54:04;8.43;;;7.10;;
32292;SDS011;43233;48.608;8.838;2023-06-26T00:56:30;8.87;;;7.20;;
32292;SDS011;43233;48.608;8.838;2023-06-26T00:58:56;9.23;;;7.40;;
32292;SDS011;43233;48.608;8.838;2023-06-26T01:01:22;10.00;;;7.73;;
32292;SDS011;43233;48.608;8.838;2023-06-26T01:03:50;8.10;;;7.17;;
32292;SDS011;43233;48.608;8.838;2023-06-26T01:06:18;10.53;;;7.53;;
32292;SDS011;43233;48.608;8.838;2023-06-26T01:08:46;9.37;;;7.80;;
32292;SDS011;43233;48.608;8.838;2023-06-26T01:11:13;10.87;;;7.30;;
32292;SDS011;43233;48.608;8.838;2023-06-26T01:13:41;13.37;;;7.60;;
32292;SDS011;43233;48.608;8.838;2023-06-26T01:16:09;8.67;;;7.40;;
32292;SDS011;43233;48.608;8.838;2023-06-26T01:18:35;15.03;;;7.93;;
32292;SDS011;43233;48.608;8.838;2023-06-26T01:21:07;7.97;;;6.87;;
32292;SDS011;43233;48.608;8.838;2023-06-26T01:23:39;7.70;;;6.90;;
32292;SDS011;43233;48.608;8.838;2023-06-26T01:28:45;10.20;;;7.97;;
32292;SDS011;43233;48.608;8.838;2023-06-26T01:31:11;9.63;;;7.30;;
32292;SDS011;43233;48.608;8.838;2023-06-26T01:33:38;9.53;;;8.10;;
32292;SDS011;43233;48.608;8.838;2023-06-26T01:36:06;7.80;;;6.77;;
32292;SDS011;43233;48.608;8.838;2023-06-26T01:38:32;7.77;;;6.97;;
32292;SDS011;43233;48.608;8.838;2023-06-26T01:40:58;10.70;;;7.60;;
32292;SDS011;43233;48.608;8.838;2023-06-26T01:45:59;8.27;;;7.03;;
32292;SDS011;43233;48.608;8.838;2023-06-26T01:48:40;17.60;;;13.20;;
32292;SDS011;43233;48.608;8.838;2023-06-26T01:51:30;25.20;;;16.03;;
32292;SDS011;43233;48.608;8.838;2023-06-26T01:54:00;14.47;;;10.53;;
32292;SDS011;43233;48.608;8.838;2023-06-26T01:56:28;9.63;;;7.50;;
32292;SDS011;43233;48.608;8.838;2023-06-26T01:58:54;8.43;;;7.20;;
32292;SDS011;43233;48.608;8.838;2023-06-26T02:01:21;9.63;;;7.43;;
32292;SDS011;43233;48.608;8.838;2023-06-26T02:03:47;9.10;;;7.87;;
32292;SDS011;43233;48.608;8.838;2023-06-26T02:06:13;8.73;;;7.50;;
32292;SDS011;43233;48.608;8.838;2023-06-26T02:08:39;7.53;;;6.73;;
32292;SDS011;43233;48.608;8.838;2023-06-26T02:11:05;10.27;;;7.60;;
32292;SDS011;43233;48.608;8.838;2023-06-26T02:13:31;12.60;;;9.30;;
32292;SDS011;43233;48.608;8.838;2023-06-26T02:15:57;8.27;;;6.90;;
32292;SDS011;43233;48.608;8.838;2023-06-26T02:18:23;7.63;;;6.83;;
32292;SDS011;43233;48.608;8.838;2023-06-26T02:20:49;8.40;;;6.63;;
32292;SDS011;43233;48.608;8.838;2023-06-26T02:23:15;9.47;;;7.50;;
32292;SDS011;43233;48.608;8.838;2023-06-26T02:25:41;9.90;;;7.40;;
32292;SDS011;43233;48.608;8.838;2023-06-26T02:28:07;7.30;;;6.10;;
32292;SDS011;43233;48.608;8.838;2023-06-26T02:30:32;10.67;;;7.80;;
32292;SDS011;43233;48.608;8.838;2023-06-26T02:32:58;9.80;;;7.50;;
32292;SDS011;43233;48.608;8.838;2023-06-26T02:35:23;10.80;;;8.47;;
32292;SDS011;43233;48.608;8.838;2023-06-26T02:37:49;10.60;;;7.10;;
32292;SDS011;43233;48.608;8.838;2023-06-26T02:40:16;9.57;;;7.93;;
32292;SDS011;43233;48.608;8.838;2023-06-26T02:42:41;7.93;;;7.13;;
32292;SDS011;43233;48.608;8.838;2023-06-26T02:45:07;8.13;;;7.17;;
32292;SDS011;43233;48.608;8.838;2023-06-26T02:47:33;9.77;;;7.60;;
32292;SDS011;43233;48.608;8.838;2023-06-26T02:49:59;11.23;;;8.50;;
32292;SDS011;43233;48.608;8.838;2023-06-26T02:52:25;11.80;;;8.37;;
32292;SDS011;43233;48.608;8.838;2023-06-26T02:54:50;9.80;;;7.47;;
32292;SDS011;43233;48.608;8.838;2023-06-26T02:57:16;8.47;;;7.27;;
32292;SDS011;43233;48.608;8.838;2023-06-26T02:59:42;9.47;;;7.10;;
32292;SDS011;43233;48.608;8.838;2023-06-26T03:02:07;10.13;;;8.47;;
32292;SDS011;43233;48.608;8.838;2023-06-26T03:04:33;10.90;;;7.73;;
32292;SDS011;43233;48.608;8.838;2023-06-26T03:07:02;10.80;;;7.03;;
32292;SDS011;43233;48.608;8.838;2023-06-26T03:09:28;10.73;;;8.03;;
32292;SDS011;43233;48.608;8.838;2023-06-26T03:11:53;8.10;;;7.10;;
32292;SDS011;43233;48.608;8.838;2023-06-26T03:14:20;9.30;;;8.30;;
32292;SDS011;43233;48.608;8.838;2023-06-26T03:16:46;11.30;;;8.63;;
32292;SDS011;43233;48.608;8.838;2023-06-26T03:19:12;11.27;;;8.50;;
32292;SDS011;43233;48.608;8.838;2023-06-26T03:21:37;10.20;;;8.53;;
32292;SDS011;43233;48.608;8.838;2023-06-26T03:24:03;9.23;;;7.67;;
32292;SDS011;43233;48.608;8.838;2023-06-26T03:26:28;11.00;;;8.43;;
32292;SDS011;43233;48.608;8.838;2023-06-26T03:28:54;11.73;;;8.50;;
32292;SDS011;43233;48.608;8.838;2023-06-26T03:31:20;9.80;;;7.40;;
32292;SDS011;43233;48.608;8.838;2023-06-26T03:33:46;9.90;;;7.77;;
32292;SDS011;43233;48.608;8.838;2023-06-26T03:36:11;10.87;;;8.30;;
32292;SDS011;43233;48.608;8.838;2023-06-26T03:38:37;7.80;;;6.90;;
32292;SDS011;43233;48.608;8.838;2023-06-26T03:41:03;9.40;;;8.20;;
32292;SDS011;43233;48.608;8.838;2023-06-26T03:43:29;11.03;;;7.50;;
32292;SDS011;43233;48.608;8.838;2023-06-26T03:45:54;9.17;;;8.00;;
32292;SDS011;43233;48.608;8.838;2023-06-26T03:48:20;8.40;;;7.13;;
32292;SDS011;43233;48.608;8.838;2023-06-26T03:50:45;13.37;;;8.60;;
32292;SDS011;43233;48.608;8.838;2023-06-26T03:53:11;12.10;;;7.53;;
32292;SDS011;43233;48.608;8.838;2023-06-26T03:55:37;10.90;;;7.90;;
32292;SDS011;43233;48.608;8.838;2023-06-26T03:58:03;11.30;;;8.20;;
32292;SDS011;43233;48.608;8.838;2023-06-26T04:00:29;12.77;;;8.73;;
32292;SDS011;43233;48.608;8.838;2023-06-26T04:02:55;11.00;;;7.97;;
32292;SDS011;43233;48.608;8.838;2023-06-26T04:05:22;9.30;;;7.37;;
32292;SDS011;43233;48.608;8.838;2023-06-26T04:07:51;9.80;;;7.93;;
32292;SDS011;43233;48.608;8.838;2023-06-26T04:10:17;8.00;;;7.20;;
32292;SDS011;43233;48.608;8.838;2023-06-26T04:12:44;10.20;;;7.50;;
32292;SDS011;43233;48.608;8.838;2023-06-26T04:15:10;14.90;;;7.70;;
32292;SDS011;43233;48.608;8.838;2023-06-26T04:17:36;10.13;;;9.00;;
32292;SDS011;43233;48.608;8.838;2023-06-26T04:20:01;9.40;;;7.97;;
32292;SDS011;43233;48.608;8.838;2023-06-26T04:22:31;9.83;;;8.83;;
32292;SDS011;43233;48.608;8.838;2023-06-26T04:24:57;9.90;;;8.63;;
32292;SDS011;43233;48.608;8.838;2023-06-26T04:27:22;9.50;;;8.33;;
32292;SDS011;43233;48.608;8.838;2023-06-26T04:29:49;14.60;;;7.70;;
32292;SDS011;43233;48.608;8.838;2023-06-26T04:32:14;13.23;;;9.23;;
32292;SDS011;43233;48.608;8.838;2023-06-26T04:34:40;11.40;;;8.47;;
32292;SDS011;43233;48.608;8.838;2023-06-26T04:37:08;11.80;;;8.60;;
32292;SDS011;43233;48.608;8.838;2023-06-26T04:39:34;13.43;;;8.83;;
32292;SDS011;43233;48.608;8.838;2023-06-26T04:42:04;14.00;;;8.47;;
32292;SDS011;43233;48.608;8.838;2023-06-26T04:44:31;10.60;;;8.03;;
32292;SDS011;43233;48.608;8.838;2023-06-26T04:46:56;9.20;;;7.80;;
32292;SDS011;43233;48.608;8.838;2023-06-26T04:49:22;9.63;;;7.60;;
32292;SDS011;43233;48.608;8.838;2023-06-26T04:51:48;10.33;;;8.80;;
32292;SDS011;43233;48.608;8.838;2023-06-26T04:54:15;8.80;;;7.93;;
32292;SDS011;43233;48.608;8.838;2023-06-26T04:56:41;9.30;;;7.80;;
32292;SDS011;43233;48.608;8.838;2023-06-26T04:59:08;7.80;;;7.00;;
32292;SDS011;43233;48.608;8.838;2023-06-26T05:01:38;8.67;;;7.63;;
32292;SDS011;43233;48.608;8.838;2023-06-26T05:04:04;9.30;;;7.57;;
32292;SDS011;43233;48.608;8.838;2023-06-26T05:06:30;10.20;;;8.47;;
32292;SDS011;43233;48.608;8.838;2023-06-26T05:08:56;9.40;;;7.90;;
32292;SDS011;43233;48.608;8.838;2023-06-26T05:11:22;11.43;;;8.67;;
32292;SDS011;43233;48.608;8.838;2023-06-26T05:13:48;8.33;;;6.97;;
32292;SDS011;43233;48.608;8.838;2023-06-26T05:16:14;15.93;;;9.00;;
32292;SDS011;43233;48.608;8.838;2023-06-26T05:18:40;12.57;;;8.90;;
32292;SDS011;43233;48.608;8.838;2023-06-26T05:21:05;11.33;;;7.90;;
32292;SDS011;43233;48.608;8.838;2023-06-26T05:23:32;10.00;;;8.67;;
32292;SDS011;43233;48.608;8.838;2023-06-26T05:25:59;11.90;;;9.30;;
32292;SDS011;43233;48.608;8.838;2023-06-26T05:28:25;9.83;;;8.37;;
32292;SDS011;43233;48.608;8.838;2023-06-26T05:30:52;12.50;;;9.83;;
32292;SDS011;43233;48.608;8.838;2023-06-26T05:33:19;13.30;;;8.70;;
32292;SDS011;43233;48.608;8.838;2023-06-26T05:35:48;9.93;;;8.70;;
32292;SDS011;43233;48.608;8.838;2023-06-26T05:38:16;10.93;;;9.20;;
32292;SDS011;43233;48.608;8.838;2023-06-26T05:40:43;12.53;;;9.60;;
32292;SDS011;43233;48.608;8.838;2023-06-26T05:43:08;11.80;;;7.87;;
32292;SDS011;43233;48.608;8.838;2023-06-26T05:45:34;11.70;;;9.60;;
32292;SDS011;43233;48.608;8.838;2023-06-26T05:48:00;14.10;;;9.40;;
32292;SDS011;43233;48.608;8.838;2023-06-26T05:50:26;9.00;;;7.73;;
32292;SDS011;43233;48.608;8.838;2023-06-26T05:52:52;12.47;;;8.47;;
32292;SDS011;43233;48.608;8.838;2023-06-26T05:55:18;11.53;;;7.90;;
32292;SDS011;43233;48.608;8.838;2023-06-26T05:57:45;9.90;;;8.07;;
32292;SDS011;43233;48.608;8.838;2023-06-26T06:00:11;9.23;;;7.90;;
32292;SDS011;43233;48.608;8.838;2023-06-26T06:02:38;13.83;;;9.60;;
32292;SDS011;43233;48.608;8.838;2023-06-26T06:05:04;10.80;;;9.03;;
32292;SDS011;43233;48.608;8.838;2023-06-26T06:07:32;8.40;;;7.60;;
32292;SDS011;43233;48.608;8.838;2023-06-26T06:09:58;9.77;;;8.20;;
32292;SDS011;43233;48.608;8.838;2023-06-26T06:12:24;8.40;;;7.30;;
32292;SDS011;43233;48.608;8.838;2023-06-26T06:14:49;14.90;;;7.73;;
32292;SDS011;43233;48.608;8.838;2023-06-26T06:17:16;11.60;;;8.80;;
32292;SDS011;43233;48.608;8.838;2023-06-26T06:19:41;9.63;;;7.80;;
32292;SDS011;43233;48.608;8.838;2023-06-26T06:22:07;18.20;;;9.73;;
32292;SDS011;43233;48.608;8.838;2023-06-26T06:24:32;10.93;;;8.10;;
32292;SDS011;43233;48.608;8.838;2023-06-26T06:26:58;15.93;;;8.40;;
32292;SDS011;43233;48.608;8.838;2023-06-26T06:29:24;16.77;;;8.50;;
32292;SDS011;43233;48.608;8.838;2023-06-26T06:31:49;15.80;;;9.73;;
32292;SDS011;43233;48.608;8.838;2023-06-26T06:34:16;12.00;;;8.53;;
32292;SDS011;43233;48.608;8.838;2023-06-26T06:36:42;16.40;;;8.87;;
32292;SDS011;43233;48.608;8.838;2023-06-26T06:39:07;13.73;;;8.27;;
32292;SDS011;43233;48.608;8.838;2023-06-26T06:41:33;13.30;;;9.30;;
32292;SDS011;43233;48.608;8.838;2023-06-26T06:43:59;11.23;;;8.33;;
32292;SDS011;43233;48.608;8.838;2023-06-26T06:46:24;10.87;;;8.10;;
32292;SDS011;43233;48.608;8.838;2023-06-26T06:48:52;9.67;;;8.13;;
32292;SDS011;43233;48.608;8.838;2023-06-26T06:51:18;8.30;;;7.20;;
32292;SDS011;43233;48.608;8.838;2023-06-26T06:53:44;8.43;;;7.57;;
32292;SDS011;43233;48.608;8.838;2023-06-26T06:56:09;7.63;;;6.83;;
32292;SDS011;43233;48.608;8.838;2023-06-26T06:58:35;9.67;;;8.00;;
32292;SDS011;43233;48.608;8.838;2023-06-26T07:01:01;8.53;;;7.33;;
32292;SDS011;43233;48.608;8.838;2023-06-26T07:03:29;9.33;;;6.97;;
32292;SDS011;43233;48.608;8.838;2023-06-26T07:05:55;9.60;;;7.10;;
32292;SDS011;43233;48.608;8.838;2023-06-26T07:08:21;7.77;;;6.80;;
32292;SDS011;43233;48.608;8.838;2023-06-26T07:10:47;7.23;;;6.30;;
32292;SDS011;43233;48.608;8.838;2023-06-26T07:13:12;7.90;;;6.50;;
32292;SDS011;43233;48.608;8.838;2023-06-26T07:15:38;6.37;;;5.77;;
32292;SDS011;43233;48.608;8.838;2023-06-26T07:18:04;9.00;;;7.50;;
32292;SDS011;43233;48.608;8.838;2023-06-26T07:20:30;10.73;;;7.37;;
32292;SDS011;43233;48.608;8.838;2023-06-26T07:22:55;10.40;;;6.40;;
32292;SDS011;43233;48.608;8.838;2023-06-26T07:25:21;9.33;;;6.60;;
32292;SDS011;43233;48.608;8.838;2023-06-26T07:27:46;7.60;;;5.97;;
32292;SDS011;43233;48.608;8.838;2023-06-26T07:30:12;6.30;;;5.60;;
32292;SDS011;43233;48.608;8.838;2023-06-26T07:32:38;5.73;;;5.23;;
32292;SDS011;43233;48.608;8.838;2023-06-26T07:35:05;5.30;;;4.80;;
32292;SDS011;43233;48.608;8.838;2023-06-26T07:37:31;6.90;;;6.13;;
32292;SDS011;43233;48.608;8.838;2023-06-26T07:39:57;6.00;;;5.23;;
32292;SDS011;43233;48.608;8.838;2023-06-26T07:42:22;5.50;;;5.00;;
32292;SDS011;43233;48.608;8.838;2023-06-26T07:44:48;5.77;;;5.27;;
32292;SDS011;43233;48.608;8.838;2023-06-26T07:47:14;6.00;;;4.90;;
32292;SDS011;43233;48.608;8.838;2023-06-26T07:49:40;5.13;;;4.53;;
32292;SDS011;43233;48.608;8.838;2023-06-26T07:52:06;6.07;;;5.47;;
32292;SDS011;43233;48.608;8.838;2023-06-26T07:54:31;5.03;;;4.63;;
32292;SDS011;43233;48.608;8.838;2023-06-26T07:57:00;5.67;;;5.10;;
32292;SDS011;43233;48.608;8.838;2023-06-26T07:59:28;5.67;;;5.10;;
32292;SDS011;43233;48.608;8.838;2023-06-26T08:01:54;7.40;;;4.80;;
32292;SDS011;43233;48.608;8.838;2023-06-26T08:04:22;5.43;;;4.80;;
32292;SDS011;43233;48.608;8.838;2023-06-26T08:06:49;5.50;;;5.00;;
32292;SDS011;43233;48.608;8.838;2023-06-26T08:09:17;5.10;;;4.70;;
32292;SDS011;43233;48.608;8.838;2023-06-26T08:11:44;5.93;;;5.30;;
32292;SDS011;43233;48.608;8.838;2023-06-26T08:14:10;11.93;;;4.90;;
32292;SDS011;43233;48.608;8.838;2023-06-26T08:16:37;9.33;;;4.63;;
32292;SDS011;43233;48.608;8.838;2023-06-26T08:19:03;5.73;;;4.90;;
32292;SDS011;43233;48.608;8.838;2023-06-26T08:21:29;5.00;;;4.50;;
32292;SDS011;43233;48.608;8.838;2023-06-26T08:23:55;5.57;;;5.03;;
32292;SDS011;43233;48.608;8.838;2023-06-26T08:26:21;5.30;;;4.80;;
32292;SDS011;43233;48.608;8.838;2023-06-26T08:28:47;6.00;;;5.50;;
32292;SDS011;43233;48.608;8.838;2023-06-26T08:31:12;18.07;;;13.73;;
32292;SDS011;43233;48.608;8.838;2023-06-26T08:33:38;5.53;;;5.03;;
32292;SDS011;43233;48.608;8.838;2023-06-26T08:36:03;5.37;;;4.87;;
32292;SDS011;43233;48.608;8.838;2023-06-26T08:38:29;6.70;;;5.20;;
32292;SDS011;43233;48.608;8.838;2023-06-26T08:40:55;7.23;;;5.20;;
32292;SDS011;43233;48.608;8.838;2023-06-26T08:43:20;6.93;;;4.83;;
32292;SDS011;43233;48.608;8.838;2023-06-26T08:45:47;5.93;;;5.00;;
32292;SDS011;43233;48.608;8.838;2023-06-26T08:48:16;5.30;;;4.80;;
32292;SDS011;43233;48.608;8.838;2023-06-26T08:50:43;5.33;;;4.83;;
32292;SDS011;43233;48.608;8.838;2023-06-26T08:56:12;6.20;;;4.67;;
32292;SDS011;43233;48.608;8.838;2023-06-26T08:58:42;5.23;;;4.73;;
32292;SDS011;43233;48.608;8.838;2023-06-26T09:01:08;7.00;;;4.83;;
32292;SDS011;43233;48.608;8.838;2023-06-26T09:03:35;6.70;;;4.50;;
32292;SDS011;43233;48.608;8.838;2023-06-26T09:06:01;6.57;;;4.87;;
32292;SDS011;43233;48.608;8.838;2023-06-26T09:08:27;5.07;;;4.20;;
32292;SDS011;43233;48.608;8.838;2023-06-26T09:10:53;11.03;;;4.80;;
32292;SDS011;43233;48.608;8.838;2023-06-26T09:13:18;5.43;;;4.93;;
32292;SDS011;43233;48.608;8.838;2023-06-26T09:15:44;5.93;;;5.40;;
32292;SDS011;43233;48.608;8.838;2023-06-26T09:18:11;5.77;;;5.27;;
32292;SDS011;43233;48.608;8.838;2023-06-26T09:20:37;6.50;;;5.90;;
32292;SDS011;43233;48.608;8.838;2023-06-26T09:23:03;7.43;;;5.07;;
32292;SDS011;43233;48.608;8.838;2023-06-26T09:25:30;5.40;;;4.63;;
32292;SDS011;43233;48.608;8.838;2023-06-26T09:27:56;4.97;;;4.47;;
32292;SDS011;43233;48.608;8.838;2023-06-26T09:30:22;5.40;;;4.90;;
32292;SDS011;43233;48.608;8.838;2023-06-26T09:32:48;5.33;;;4.73;;
32292;SDS011;43233;48.608;8.838;2023-06-26T09:35:15;12.80;;;5.00;;
32292;SDS011;43233;48.608;8.838;2023-06-26T09:37:42;5.87;;;4.67;;
32292;SDS011;43233;48.608;8.838;2023-06-26T09:40:08;6.90;;;5.43;;
32292;SDS011;43233;48.608;8.838;2023-06-26T09:42:35;5.60;;;4.80;;
32292;SDS011;43233;48.608;8.838;2023-06-26T09:45:01;8.30;;;4.47;;
32292;SDS011;43233;48.608;8.838;2023-06-26T09:47:29;6.87;;;5.27;;
32292;SDS011;43233;48.608;8.838;2023-06-26T09:49:56;5.23;;;4.73;;
32292;SDS011;43233;48.608;8.838;2023-06-26T09:52:25;5.37;;;4.87;;
32292;SDS011;43233;48.608;8.838;2023-06-26T09:54:52;5.70;;;5.20;;
32292;SDS011;43233;48.608;8.838;2023-06-26T09:57:34;5.80;;;4.63;;
32292;SDS011;43233;48.608;8.838;2023-06-26T10:00:00;5.50;;;5.00;;
32292;SDS011;43233;48.608;8.838;2023-06-26T10:02:27;5.87;;;5.37;;
32292;SDS011;43233;48.608;8.838;2023-06-26T10:04:53;6.50;;;5.30;;
32292;SDS011;43233;48.608;8.838;2023-06-26T10:07:18;4.97;;;4.50;;
32292;SDS011;43233;48.608;8.838;2023-06-26T10:09:45;12.20;;;5.47;;
32292;SDS011;43233;48.608;8.838;2023-06-26T10:14:50;7.93;;;6.00;;
32292;SDS011;43233;48.608;8.838;2023-06-26T10:17:19;6.80;;;5.10;;
32292;SDS011;43233;48.608;8.838;2023-06-26T10:19:48;14.03;;;6.30;;
32292;SDS011;43233;48.608;8.838;2023-06-26T10:22:16;5.87;;;5.30;;
32292;SDS011;43233;48.608;8.838;2023-06-26T10:24:43;8.77;;;5.33;;
32292;SDS011;43233;48.608;8.838;2023-06-26T10:29:44;13.30;;;6.30;;
32292;SDS011;43233;48.608;8.838;2023-06-26T10:32:17;6.87;;;6.27;;
32292;SDS011;43233;48.608;8.838;2023-06-26T10:34:44;7.40;;;6.10;;
32292;SDS011;43233;48.608;8.838;2023-06-26T10:37:11;6.83;;;6.00;;
32292;SDS011;43233;48.608;8.838;2023-06-26T10:39:47;10.97;;;6.47;;
32292;SDS011;43233;48.608;8.838;2023-06-26T10:42:16;6.03;;;5.43;;
32292;SDS011;43233;48.608;8.838;2023-06-26T10:44:44;11.50;;;6.50;;
32292;SDS011;43233;48.608;8.838;2023-06-26T10:47:12;6.90;;;6.20;;
32292;SDS011;43233;48.608;8.838;2023-06-26T10:49:53;8.83;;;6.30;;
32292;SDS011;43233;48.608;8.838;2023-06-26T10:52:19;11.43;;;6.33;;
32292;SDS011;43233;48.608;8.838;2023-06-26T10:54:45;6.13;;;5.63;;
32292;SDS011;43233;48.608;8.838;2023-06-26T10:57:10;7.40;;;6.70;;
32292;SDS011;43233;48.608;8.838;2023-06-26T10:59:38;9.97;;;6.23;;
32292;SDS011;43233;48.608;8.838;2023-06-26T11:02:06;6.70;;;6.10;;
32292;SDS011;43233;48.608;8.838;2023-06-26T11:04:44;6.13;;;5.60;;
32292;SDS011;43233;48.608;8.838;2023-06-26T11:12:34;9.43;;;6.10;;
32292;SDS011;43233;48.608;8.838;2023-06-26T11:15:06;6.97;;;6.27;;
32292;SDS011;43233;48.608;8.838;2023-06-26T11:17:39;6.90;;;6.27;;
32292;SDS011;43233;48.608;8.838;2023-06-26T11:20:06;7.17;;;5.53;;
32292;SDS011;43233;48.608;8.838;2023-06-26T11:22:38;8.27;;;6.33;;
32292;SDS011;43233;48.608;8.838;2023-06-26T11:25:05;9.83;;;6.37;;
32292;SDS011;43233;48.608;8.838;2023-06-26T11:27:37;6.43;;;5.87;;
32292;SDS011;43233;48.608;8.838;2023-06-26T11:30:04;7.73;;;6.87;;
32292;SDS011;43233;48.608;8.838;2023-06-26T11:32:35;6.70;;;5.87;;
32292;SDS011;43233;48.608;8.838;2023-06-26T11:35:01;6.50;;;5.80;;
32292;SDS011;43233;48.608;8.838;2023-06-26T11:37:29;7.03;;;6.33;;
32292;SDS011;43233;48.608;8.838;2023-06-26T11:39:56;10.57;;;6.27;;
32292;SDS011;43233;48.608;8.838;2023-06-26T11:42:22;8.07;;;5.93;;
32292;SDS011;43233;48.608;8.838;2023-06-26T11:44:49;6.97;;;6.30;;
32292;SDS011;43233;48.608;8.838;2023-06-26T11:47:18;6.60;;;6.00;;
32292;SDS011;43233;48.608;8.838;2023-06-26T11:49:46;5.93;;;5.33;;
32292;SDS011;43233;48.608;8.838;2023-06-26T11:52:13;8.93;;;5.97;;
32292;SDS011;43233;48.608;8.838;2023-06-26T11:54:40;7.70;;;6.00;;
32292;SDS011;43233;48.608;8.838;2023-06-26T11:57:07;7.30;;;5.80;;
32292;SDS011;43233;48.608;8.838;2023-06-26T11:59:33;10.03;;;6.47;;
32292;SDS011;43233;48.608;8.838;2023-06-26T12:02:00;7.17;;;6.30;;
32292;SDS011;43233;48.608;8.838;2023-06-26T12:04:30;10.00;;;6.47;;
32292;SDS011;43233;48.608;8.838;2023-06-26T12:06:56;8.80;;;6.43;;
32292;SDS011;43233;48.608;8.838;2023-06-26T12:09:22;8.13;;;6.60;;
32292;SDS011;43233;48.608;8.838;2023-06-26T12:11:48;8.17;;;5.57;;
32292;SDS011;43233;48.608;8.838;2023-06-26T12:14:19;10.17;;;6.60;;
32292;SDS011;43233;48.608;8.838;2023-06-26T12:16:47;6.07;;;5.50;;
32292;SDS011;43233;48.608;8.838;2023-06-26T12:19:13;8.47;;;5.57;;
32292;SDS011;43233;48.608;8.838;2023-06-26T12:24:17;7.27;;;5.90;;
32292;SDS011;43233;48.608;8.838;2023-06-26T12:26:45;13.90;;;5.80;;
32292;SDS011;43233;48.608;8.838;2023-06-26T12:29:12;8.77;;;6.23;;
32292;SDS011;43233;48.608;8.838;2023-06-26T12:31:40;8.77;;;6.37;;
32292;SDS011;43233;48.608;8.838;2023-06-26T12:34:14;8.80;;;6.30;;
32292;SDS011;43233;48.608;8.838;2023-06-26T12:36:49;13.93;;;5.90;;
32292;SDS011;43233;48.608;8.838;2023-06-26T12:39:16;7.77;;;5.90;;
32292;SDS011;43233;48.608;8.838;2023-06-26T12:41:46;8.90;;;6.10;;
32292;SDS011;43233;48.608;8.838;2023-06-26T12:44:27;6.57;;;5.87;;
32292;SDS011;43233;48.608;8.838;2023-06-26T12:46:58;7.73;;;5.63;;
32292;SDS011;43233;48.608;8.838;2023-06-26T12:49:34;8.17;;;6.10;;
32292;SDS011;43233;48.608;8.838;2023-06-26T12:52:01;5.90;;;5.30;;
32292;SDS011;43233;48.608;8.838;2023-06-26T12:54:28;7.47;;;6.47;;
32292;SDS011;43233;48.608;8.838;2023-06-26T12:56:54;6.87;;;5.70;;
32292;SDS011;43233;48.608;8.838;2023-06-26T12:59:20;10.30;;;6.13;;
32292;SDS011;43233;48.608;8.838;2023-06-26T13:01:46;8.03;;;5.90;;
32292;SDS011;43233;48.608;8.838;2023-06-26T13:04:12;8.40;;;5.90;;
32292;SDS011;43233;48.608;8.838;2023-06-26T13:06:37;6.60;;;5.70;;
32292;SDS011;43233;48.608;8.838;2023-06-26T13:09:03;9.00;;;5.87;;
32292;SDS011;43233;48.608;8.838;2023-06-26T13:11:29;6.50;;;5.70;;
32292;SDS011;43233;48.608;8.838;2023-06-26T13:13:55;7.83;;;5.50;;
32292;SDS011;43233;48.608;8.838;2023-06-26T13:16:21;7.70;;;5.60;;
32292;SDS011;43233;48.608;8.838;2023-06-26T13:18:47;8.97;;;5.40;;
32292;SDS011;43233;48.608;8.838;2023-06-26T13:21:13;10.30;;;6.43;;
32292;SDS011;43233;48.608;8.838;2023-06-26T13:23:39;7.77;;;5.30;;
32292;SDS011;43233;48.608;8.838;2023-06-26T13:26:05;6.17;;;5.57;;
32292;SDS011;43233;48.608;8.838;2023-06-26T13:28:31;8.17;;;5.30;;
32292;SDS011;43233;48.608;8.838;2023-06-26T13:30:57;6.30;;;5.70;;
32292;SDS011;43233;48.608;8.838;2023-06-26T13:33:22;9.00;;;6.23;;
32292;SDS011;43233;48.608;8.838;2023-06-26T13:35:50;11.53;;;5.40;;
32292;SDS011;43233;48.608;8.838;2023-06-26T13:38:17;7.60;;;5.93;;
32292;SDS011;43233;48.608;8.838;2023-06-26T13:40:45;11.93;;;5.73;;
32292;SDS011;43233;48.608;8.838;2023-06-26T13:43:10;9.13;;;4.90;;
32292;SDS011;43233;48.608;8.838;2023-06-26T13:45:36;5.67;;;5.07;;
32292;SDS011;43233;48.608;8.838;2023-06-26T13:48:02;9.23;;;4.80;;
32292;SDS011;43233;48.608;8.838;2023-06-26T13:50:28;5.53;;;5.03;;
32292;SDS011;43233;48.608;8.838;2023-06-26T13:52:54;5.70;;;5.17;;
32292;SDS011;43233;48.608;8.838;2023-06-26T13:55:20;10.03;;;5.60;;
32292;SDS011;43233;48.608;8.838;2023-06-26T13:57:47;5.90;;;4.90;;
32292;SDS011;43233;48.608;8.838;2023-06-26T14:00:14;6.60;;;4.70;;
32292;SDS011;43233;48.608;8.838;2023-06-26T14:02:44;6.20;;;5.17;;
32292;SDS011;43233;48.608;8.838;2023-06-26T14:05:10;9.27;;;5.10;;
32292;SDS011;43233;48.608;8.838;2023-06-26T14:07:36;5.53;;;4.57;;
32292;SDS011;43233;48.608;8.838;2023-06-26T14:10:03;5.93;;;4.77;;
32292;SDS011;43233;48.608;8.838;2023-06-26T14:12:30;8.30;;;5.40;;
32292;SDS011;43233;48.608;8.838;2023-06-26T14:14:57;5.67;;;5.17;;
32292;SDS011;43233;48.608;8.838;2023-06-26T14:17:22;6.00;;;5.40;;
32292;SDS011;43233;48.608;8.838;2023-06-26T14:19:50;5.70;;;4.23;;
32292;SDS011;43233;48.608;8.838;2023-06-26T14:22:17;4.80;;;4.23;;
32292;SDS011;43233;48.608;8.838;2023-06-26T14:24:43;6.93;;;4.87;;
32292;SDS011;43233;48.608;8.838;2023-06-26T14:27:09;4.77;;;3.97;;
32292;SDS011;43233;48.608;8.838;2023-06-26T14:29:35;8.27;;;3.87;;
32292;SDS011;43233;48.608;8.838;2023-06-26T14:32:01;8.80;;;3.67;;
32292;SDS011;43233;48.608;8.838;2023-06-26T14:34:27;3.93;;;3.63;;
32292;SDS011;43233;48.608;8.838;2023-06-26T14:36:53;6.07;;;3.90;;
32292;SDS011;43233;48.608;8.838;2023-06-26T14:39:18;6.50;;;3.50;;
32292;SDS011;43233;48.608;8.838;2023-06-26T14:41:44;6.23;;;3.97;;
32292;SDS011;43233;48.608;8.838;2023-06-26T14:44:09;10.20;;;4.03;;
32292;SDS011;43233;48.608;8.838;2023-06-26T14:46:36;4.40;;;3.87;;
32292;SDS011;43233;48.608;8.838;2023-06-26T14:49:02;7.23;;;4.00;;
32292;SDS011;43233;48.608;8.838;2023-06-26T14:51:28;5.03;;;3.27;;
32292;SDS011;43233;48.608;8.838;2023-06-26T14:53:54;8.57;;;3.90;;
32292;SDS011;43233;48.608;8.838;2023-06-26T14:56:19;9.73;;;4.47;;
32292;SDS011;43233;48.608;8.838;2023-06-26T14:58:45;4.97;;;4.20;;
32292;SDS011;43233;48.608;8.838;2023-06-26T15:01:14;4.90;;;3.77;;